sensor_id;sensor_type;location;lat;lon;timestamp;P1;durP1;ratioP1;P2;durP2;ratioP2
23376;SDS011;14353;46.070;13.222;2024-01-27T00:00:08;9.50;;;8.43;;
23376;SDS011;14353;46.070;13.222;2024-01-27T00:02:35;10.80;;;8.50;;
23376;SDS011;14353;46.070;13.222;2024-01-27T00:05:01;10.45;;;8.82;;
23376;SDS011;14353;46.070;13.222;2024-01-27T00:07:27;10.45;;;8.85;;
23376;SDS011;14353;46.070;13.222;2024-01-27T00:09:53;12.18;;;9.00;;
23376;SDS011;14353;46.070;13.222;2024-01-27T00:12:20;11.25;;;8.90;;
23376;SDS011;14353;46.070;13.222;2024-01-27T00:14:46;10.45;;;8.90;;
23376;SDS011;14353;46.070;13.222;2024-01-27T00:17:11;11.15;;;8.98;;
23376;SDS011;14353;46.070;13.222;2024-01-27T00:19:37;10.65;;;8.75;;
23376;SDS011;14353;46.070;13.222;2024-01-27T00:22:03;11.85;;;8.57;;
23376;SDS011;14353;46.070;13.222;2024-01-27T00:24:29;10.02;;;8.45;;
23376;SDS011;14353;46.070;13.222;2024-01-27T00:26:54;10.48;;;9.18;;
23376;SDS011;14353;46.070;13.222;2024-01-27T00:29:20;11.25;;;9.50;;
23376;SDS011;14353;46.070;13.222;2024-01-27T00:31:46;11.77;;;9.30;;
23376;SDS011;14353;46.070;13.222;2024-01-27T00:34:12;10.20;;;9.10;;
23376;SDS011;14353;46.070;13.222;2024-01-27T00:36:37;10.50;;;8.80;;
23376;SDS011;14353;46.070;13.222;2024-01-27T00:39:03;11.18;;;9.23;;
23376;SDS011;14353;46.070;13.222;2024-01-27T00:41:29;10.38;;;9.25;;
23376;SDS011;14353;46.070;13.222;2024-01-27T00:43:55;11.35;;;9.20;;
23376;SDS011;14353;46.070;13.222;2024-01-27T00:46:21;11.32;;;9.20;;
23376;SDS011;14353;46.070;13.222;2024-01-27T00:48:47;13.07;;;10.35;;
23376;SDS011;14353;46.070;13.222;2024-01-27T00:51:13;11.45;;;9.40;;
23376;SDS011;14353;46.070;13.222;2024-01-27T00:53:39;11.88;;;9.90;;
23376;SDS011;14353;46.070;13.222;2024-01-27T00:56:04;10.30;;;9.23;;
23376;SDS011;14353;46.070;13.222;2024-01-27T00:58:30;11.02;;;9.35;;
23376;SDS011;14353;46.070;13.222;2024-01-27T01:00:56;11.80;;;10.00;;
23376;SDS011;14353;46.070;13.222;2024-01-27T01:03:23;10.82;;;9.52;;
23376;SDS011;14353;46.070;13.222;2024-01-27T01:05:49;12.65;;;10.02;;
23376;SDS011;14353;46.070;13.222;2024-01-27T01:08:15;12.55;;;9.80;;
23376;SDS011;14353;46.070;13.222;2024-01-27T01:10:41;11.52;;;9.88;;
23376;SDS011;14353;46.070;13.222;2024-01-27T01:13:06;10.57;;;9.48;;
23376;SDS011;14353;46.070;13.222;2024-01-27T01:15:32;12.25;;;9.93;;
23376;SDS011;14353;46.070;13.222;2024-01-27T01:17:58;10.20;;;9.10;;
23376;SDS011;14353;46.070;13.222;2024-01-27T01:20:23;10.50;;;9.40;;
23376;SDS011;14353;46.070;13.222;2024-01-27T01:22:51;10.73;;;9.52;;
23376;SDS011;14353;46.070;13.222;2024-01-27T01:25:17;11.48;;;9.25;;
23376;SDS011;14353;46.070;13.222;2024-01-27T01:27:43;11.52;;;9.88;;
23376;SDS011;14353;46.070;13.222;2024-01-27T01:30:10;10.90;;;9.68;;
23376;SDS011;14353;46.070;13.222;2024-01-27T01:32:36;11.18;;;9.98;;
23376;SDS011;14353;46.070;13.222;2024-01-27T01:35:02;11.30;;;9.70;;
23376;SDS011;14353;46.070;13.222;2024-01-27T01:37:29;13.20;;;9.88;;
23376;SDS011;14353;46.070;13.222;2024-01-27T01:39:54;11.95;;;10.15;;
23376;SDS011;14353;46.070;13.222;2024-01-27T01:42:20;11.43;;;9.55;;
23376;SDS011;14353;46.070;13.222;2024-01-27T01:44:49;10.43;;;8.85;;
23376;SDS011;14353;46.070;13.222;2024-01-27T01:47:16;10.63;;;9.52;;
23376;SDS011;14353;46.070;13.222;2024-01-27T01:49:42;11.88;;;10.38;;
23376;SDS011;14353;46.070;13.222;2024-01-27T01:52:07;12.15;;;9.95;;
23376;SDS011;14353;46.070;13.222;2024-01-27T01:54:34;11.88;;;10.13;;
23376;SDS011;14353;46.070;13.222;2024-01-27T01:56:59;12.27;;;10.20;;
23376;SDS011;14353;46.070;13.222;2024-01-27T01:59:25;11.15;;;9.60;;
23376;SDS011;14353;46.070;13.222;2024-01-27T02:01:51;10.70;;;9.38;;
23376;SDS011;14353;46.070;13.222;2024-01-27T02:04:17;11.43;;;9.90;;
23376;SDS011;14353;46.070;13.222;2024-01-27T02:06:43;10.00;;;8.95;;
23376;SDS011;14353;46.070;13.222;2024-01-27T02:09:08;11.15;;;9.73;;
23376;SDS011;14353;46.070;13.222;2024-01-27T02:11:35;11.40;;;9.35;;
23376;SDS011;14353;46.070;13.222;2024-01-27T02:14:00;10.50;;;8.93;;
23376;SDS011;14353;46.070;13.222;2024-01-27T02:16:26;10.48;;;9.00;;
23376;SDS011;14353;46.070;13.222;2024-01-27T02:18:52;11.32;;;9.63;;
23376;SDS011;14353;46.070;13.222;2024-01-27T02:21:17;10.75;;;9.48;;
23376;SDS011;14353;46.070;13.222;2024-01-27T02:23:43;11.25;;;9.07;;
23376;SDS011;14353;46.070;13.222;2024-01-27T02:26:09;10.60;;;9.27;;
23376;SDS011;14353;46.070;13.222;2024-01-27T02:28:34;10.38;;;9.07;;
23376;SDS011;14353;46.070;13.222;2024-01-27T02:31:00;11.23;;;9.27;;
23376;SDS011;14353;46.070;13.222;2024-01-27T02:33:26;10.93;;;8.98;;
23376;SDS011;14353;46.070;13.222;2024-01-27T02:35:52;11.57;;;8.93;;
23376;SDS011;14353;46.070;13.222;2024-01-27T02:38:17;9.90;;;8.63;;
23376;SDS011;14353;46.070;13.222;2024-01-27T02:40:43;11.73;;;9.68;;
23376;SDS011;14353;46.070;13.222;2024-01-27T02:43:09;9.82;;;8.57;;
23376;SDS011;14353;46.070;13.222;2024-01-27T02:45:34;10.02;;;8.82;;
23376;SDS011;14353;46.070;13.222;2024-01-27T02:48:00;10.57;;;9.48;;
23376;SDS011;14353;46.070;13.222;2024-01-27T02:50:26;11.05;;;9.02;;
23376;SDS011;14353;46.070;13.222;2024-01-27T02:52:52;9.70;;;8.27;;
23376;SDS011;14353;46.070;13.222;2024-01-27T02:55:17;9.68;;;8.50;;
23376;SDS011;14353;46.070;13.222;2024-01-27T02:57:46;10.07;;;9.07;;
23376;SDS011;14353;46.070;13.222;2024-01-27T03:00:12;10.10;;;8.60;;
23376;SDS011;14353;46.070;13.222;2024-01-27T03:02:38;10.43;;;9.32;;
23376;SDS011;14353;46.070;13.222;2024-01-27T03:05:04;10.55;;;9.25;;
23376;SDS011;14353;46.070;13.222;2024-01-27T03:07:30;10.20;;;8.88;;
23376;SDS011;14353;46.070;13.222;2024-01-27T03:09:55;10.80;;;8.68;;
23376;SDS011;14353;46.070;13.222;2024-01-27T03:12:21;10.15;;;9.05;;
23376;SDS011;14353;46.070;13.222;2024-01-27T03:14:48;9.93;;;8.80;;
23376;SDS011;14353;46.070;13.222;2024-01-27T03:17:14;11.95;;;8.68;;
23376;SDS011;14353;46.070;13.222;2024-01-27T03:19:40;10.70;;;9.02;;
23376;SDS011;14353;46.070;13.222;2024-01-27T03:22:06;9.35;;;8.30;;
23376;SDS011;14353;46.070;13.222;2024-01-27T03:24:31;10.13;;;8.98;;
23376;SDS011;14353;46.070;13.222;2024-01-27T03:26:57;9.15;;;8.23;;
23376;SDS011;14353;46.070;13.222;2024-01-27T03:29:23;9.80;;;8.80;;
23376;SDS011;14353;46.070;13.222;2024-01-27T03:31:48;10.02;;;9.02;;
23376;SDS011;14353;46.070;13.222;2024-01-27T03:34:14;9.95;;;8.95;;
23376;SDS011;14353;46.070;13.222;2024-01-27T03:36:40;9.70;;;8.70;;
23376;SDS011;14353;46.070;13.222;2024-01-27T03:39:06;9.18;;;8.25;;
23376;SDS011;14353;46.070;13.222;2024-01-27T03:41:33;9.88;;;8.75;;
23376;SDS011;14353;46.070;13.222;2024-01-27T03:43:58;8.50;;;7.60;;
23376;SDS011;14353;46.070;13.222;2024-01-27T03:46:24;9.50;;;8.50;;
23376;SDS011;14353;46.070;13.222;2024-01-27T03:48:50;8.68;;;7.78;;
23376;SDS011;14353;46.070;13.222;2024-01-27T03:51:15;8.73;;;7.82;;
23376;SDS011;14353;46.070;13.222;2024-01-27T03:53:41;9.40;;;8.10;;
23376;SDS011;14353;46.070;13.222;2024-01-27T03:56:07;8.82;;;7.82;;
23376;SDS011;14353;46.070;13.222;2024-01-27T03:58:37;9.30;;;8.32;;
23376;SDS011;14353;46.070;13.222;2024-01-27T04:01:03;8.50;;;7.53;;
23376;SDS011;14353;46.070;13.222;2024-01-27T04:03:29;9.07;;;8.18;;
23376;SDS011;14353;46.070;13.222;2024-01-27T04:05:55;8.88;;;7.97;;
23376;SDS011;14353;46.070;13.222;2024-01-27T04:08:21;10.20;;;8.57;;
23376;SDS011;14353;46.070;13.222;2024-01-27T04:10:46;8.57;;;7.70;;
23376;SDS011;14353;46.070;13.222;2024-01-27T04:13:12;8.65;;;7.72;;
23376;SDS011;14353;46.070;13.222;2024-01-27T04:15:38;9.38;;;8.25;;
23376;SDS011;14353;46.070;13.222;2024-01-27T04:18:07;8.80;;;7.90;;
23376;SDS011;14353;46.070;13.222;2024-01-27T04:20:34;8.05;;;7.15;;
23376;SDS011;14353;46.070;13.222;2024-01-27T04:23:01;9.00;;;7.82;;
23376;SDS011;14353;46.070;13.222;2024-01-27T04:25:27;8.65;;;7.57;;
23376;SDS011;14353;46.070;13.222;2024-01-27T04:27:53;8.50;;;7.70;;
23376;SDS011;14353;46.070;13.222;2024-01-27T04:30:19;9.20;;;7.70;;
23376;SDS011;14353;46.070;13.222;2024-01-27T04:32:45;8.23;;;7.43;;
23376;SDS011;14353;46.070;13.222;2024-01-27T04:35:11;8.57;;;7.65;;
23376;SDS011;14353;46.070;13.222;2024-01-27T04:37:37;8.27;;;7.40;;
23376;SDS011;14353;46.070;13.222;2024-01-27T04:40:06;8.73;;;7.60;;
23376;SDS011;14353;46.070;13.222;2024-01-27T04:42:33;8.27;;;7.35;;
23376;SDS011;14353;46.070;13.222;2024-01-27T04:44:59;8.00;;;7.20;;
23376;SDS011;14353;46.070;13.222;2024-01-27T04:47:25;8.45;;;7.50;;
23376;SDS011;14353;46.070;13.222;2024-01-27T04:49:51;8.43;;;7.55;;
23376;SDS011;14353;46.070;13.222;2024-01-27T04:52:17;7.88;;;7.07;;
23376;SDS011;14353;46.070;13.222;2024-01-27T04:54:42;7.78;;;6.97;;
23376;SDS011;14353;46.070;13.222;2024-01-27T04:57:08;8.38;;;7.35;;
23376;SDS011;14353;46.070;13.222;2024-01-27T04:59:35;8.43;;;7.53;;
23376;SDS011;14353;46.070;13.222;2024-01-27T05:02:00;8.15;;;7.35;;
23376;SDS011;14353;46.070;13.222;2024-01-27T05:04:29;7.93;;;7.13;;
23376;SDS011;14353;46.070;13.222;2024-01-27T05:06:55;7.82;;;6.82;;
23376;SDS011;14353;46.070;13.222;2024-01-27T05:09:20;7.75;;;6.95;;
23376;SDS011;14353;46.070;13.222;2024-01-27T05:11:46;7.80;;;7.00;;
23376;SDS011;14353;46.070;13.222;2024-01-27T05:14:13;8.27;;;7.32;;
23376;SDS011;14353;46.070;13.222;2024-01-27T05:16:39;7.85;;;6.93;;
23376;SDS011;14353;46.070;13.222;2024-01-27T05:19:04;7.68;;;6.88;;
23376;SDS011;14353;46.070;13.222;2024-01-27T05:21:30;7.63;;;6.82;;
23376;SDS011;14353;46.070;13.222;2024-01-27T05:23:55;7.72;;;6.78;;
23376;SDS011;14353;46.070;13.222;2024-01-27T05:26:21;8.15;;;7.07;;
23376;SDS011;14353;46.070;13.222;2024-01-27T05:28:47;8.18;;;7.38;;
23376;SDS011;14353;46.070;13.222;2024-01-27T05:31:13;8.50;;;6.80;;
23376;SDS011;14353;46.070;13.222;2024-01-27T05:33:38;7.35;;;6.32;;
23376;SDS011;14353;46.070;13.222;2024-01-27T05:36:04;7.50;;;6.57;;
23376;SDS011;14353;46.070;13.222;2024-01-27T05:38:30;7.82;;;7.03;;
23376;SDS011;14353;46.070;13.222;2024-01-27T05:40:57;7.32;;;6.53;;
23376;SDS011;14353;46.070;13.222;2024-01-27T05:43:26;7.10;;;6.40;;
23376;SDS011;14353;46.070;13.222;2024-01-27T05:45:52;8.23;;;7.03;;
23376;SDS011;14353;46.070;13.222;2024-01-27T05:48:17;7.05;;;6.35;;
23376;SDS011;14353;46.070;13.222;2024-01-27T05:50:43;7.05;;;6.30;;
23376;SDS011;14353;46.070;13.222;2024-01-27T05:53:09;6.93;;;6.22;;
23376;SDS011;14353;46.070;13.222;2024-01-27T05:55:37;7.45;;;6.55;;
23376;SDS011;14353;46.070;13.222;2024-01-27T05:58:03;7.40;;;6.47;;
23376;SDS011;14353;46.070;13.222;2024-01-27T06:00:28;7.22;;;6.53;;
23376;SDS011;14353;46.070;13.222;2024-01-27T06:02:54;6.93;;;6.22;;
23376;SDS011;14353;46.070;13.222;2024-01-27T06:05:20;7.38;;;6.07;;
23376;SDS011;14353;46.070;13.222;2024-01-27T06:07:45;8.10;;;6.70;;
23376;SDS011;14353;46.070;13.222;2024-01-27T06:10:12;6.80;;;6.10;;
23376;SDS011;14353;46.070;13.222;2024-01-27T06:12:39;6.78;;;6.10;;
23376;SDS011;14353;46.070;13.222;2024-01-27T06:15:05;6.65;;;6.00;;
23376;SDS011;14353;46.070;13.222;2024-01-27T06:17:33;7.38;;;6.22;;
23376;SDS011;14353;46.070;13.222;2024-01-27T06:19:59;7.90;;;6.05;;
23376;SDS011;14353;46.070;13.222;2024-01-27T06:22:24;6.75;;;6.05;;
23376;SDS011;14353;46.070;13.222;2024-01-27T06:24:50;6.82;;;6.13;;
23376;SDS011;14353;46.070;13.222;2024-01-27T06:27:16;6.80;;;6.07;;
23376;SDS011;14353;46.070;13.222;2024-01-27T06:29:42;7.50;;;6.15;;
23376;SDS011;14353;46.070;13.222;2024-01-27T06:32:09;8.15;;;6.22;;
23376;SDS011;14353;46.070;13.222;2024-01-27T06:34:34;6.57;;;5.97;;
23376;SDS011;14353;46.070;13.222;2024-01-27T06:37:00;6.70;;;5.95;;
23376;SDS011;14353;46.070;13.222;2024-01-27T06:39:26;6.35;;;5.70;;
23376;SDS011;14353;46.070;13.222;2024-01-27T06:41:52;7.68;;;5.85;;
23376;SDS011;14353;46.070;13.222;2024-01-27T06:44:18;6.60;;;5.90;;
23376;SDS011;14353;46.070;13.222;2024-01-27T06:46:43;6.97;;;6.22;;
23376;SDS011;14353;46.070;13.222;2024-01-27T06:49:11;6.93;;;5.75;;
23376;SDS011;14353;46.070;13.222;2024-01-27T06:51:38;6.18;;;5.57;;
23376;SDS011;14353;46.070;13.222;2024-01-27T06:54:03;6.85;;;5.85;;
23376;SDS011;14353;46.070;13.222;2024-01-27T06:56:29;6.55;;;5.93;;
23376;SDS011;14353;46.070;13.222;2024-01-27T06:58:55;8.00;;;6.13;;
23376;SDS011;14353;46.070;13.222;2024-01-27T07:01:20;21.00;;;7.00;;
23376;SDS011;14353;46.070;13.222;2024-01-27T07:03:46;21.73;;;6.30;;
23376;SDS011;14353;46.070;13.222;2024-01-27T07:06:12;14.48;;;6.43;;
23376;SDS011;14353;46.070;13.222;2024-01-27T07:08:38;17.38;;;7.20;;
23376;SDS011;14353;46.070;13.222;2024-01-27T07:11:04;12.40;;;6.75;;
23376;SDS011;14353;46.070;13.222;2024-01-27T07:13:30;14.20;;;7.13;;
23376;SDS011;14353;46.070;13.222;2024-01-27T07:15:56;12.85;;;6.72;;
23376;SDS011;14353;46.070;13.222;2024-01-27T07:18:23;13.50;;;6.53;;
23376;SDS011;14353;46.070;13.222;2024-01-27T07:20:49;10.57;;;6.30;;
23376;SDS011;14353;46.070;13.222;2024-01-27T07:23:15;12.00;;;6.97;;
23376;SDS011;14353;46.070;13.222;2024-01-27T07:25:40;13.95;;;6.78;;
23376;SDS011;14353;46.070;13.222;2024-01-27T07:28:06;11.30;;;6.07;;
23376;SDS011;14353;46.070;13.222;2024-01-27T07:30:32;15.13;;;6.40;;
23376;SDS011;14353;46.070;13.222;2024-01-27T07:32:57;14.05;;;6.10;;
23376;SDS011;14353;46.070;13.222;2024-01-27T07:35:23;12.55;;;7.18;;
23376;SDS011;14353;46.070;13.222;2024-01-27T07:37:49;10.63;;;6.18;;
23376;SDS011;14353;46.070;13.222;2024-01-27T07:40:14;10.40;;;6.50;;
23376;SDS011;14353;46.070;13.222;2024-01-27T07:42:40;11.43;;;6.03;;
23376;SDS011;14353;46.070;13.222;2024-01-27T07:45:06;11.07;;;6.28;;
23376;SDS011;14353;46.070;13.222;2024-01-27T07:47:33;11.63;;;5.65;;
23376;SDS011;14353;46.070;13.222;2024-01-27T07:49:59;8.90;;;5.63;;
23376;SDS011;14353;46.070;13.222;2024-01-27T07:52:25;13.02;;;5.85;;
23376;SDS011;14353;46.070;13.222;2024-01-27T07:54:51;12.88;;;5.93;;
23376;SDS011;14353;46.070;13.222;2024-01-27T07:57:16;10.27;;;6.45;;
23376;SDS011;14353;46.070;13.222;2024-01-27T07:59:42;11.73;;;5.88;;
23376;SDS011;14353;46.070;13.222;2024-01-27T08:02:08;12.70;;;6.05;;
23376;SDS011;14353;46.070;13.222;2024-01-27T08:04:33;11.90;;;5.90;;
23376;SDS011;14353;46.070;13.222;2024-01-27T08:06:59;10.02;;;5.80;;
23376;SDS011;14353;46.070;13.222;2024-01-27T08:09:31;10.68;;;6.40;;
23376;SDS011;14353;46.070;13.222;2024-01-27T08:11:56;11.80;;;5.75;;
23376;SDS011;14353;46.070;13.222;2024-01-27T08:14:23;13.38;;;6.30;;
23376;SDS011;14353;46.070;13.222;2024-01-27T08:16:48;11.70;;;5.93;;
23376;SDS011;14353;46.070;13.222;2024-01-27T08:19:15;10.38;;;6.15;;
23376;SDS011;14353;46.070;13.222;2024-01-27T08:21:45;11.10;;;5.93;;
23376;SDS011;14353;46.070;13.222;2024-01-27T08:24:12;9.68;;;5.78;;
23376;SDS011;14353;46.070;13.222;2024-01-27T08:26:38;13.73;;;6.05;;
23376;SDS011;14353;46.070;13.222;2024-01-27T08:29:04;9.35;;;5.40;;
23376;SDS011;14353;46.070;13.222;2024-01-27T08:31:30;13.10;;;5.72;;
23376;SDS011;14353;46.070;13.222;2024-01-27T08:33:56;9.35;;;5.53;;
23376;SDS011;14353;46.070;13.222;2024-01-27T08:36:22;8.80;;;5.60;;
23376;SDS011;14353;46.070;13.222;2024-01-27T08:38:48;9.77;;;5.75;;
23376;SDS011;14353;46.070;13.222;2024-01-27T08:41:13;13.52;;;5.63;;
23376;SDS011;14353;46.070;13.222;2024-01-27T08:43:39;11.07;;;6.05;;
23376;SDS011;14353;46.070;13.222;2024-01-27T08:46:05;9.90;;;5.57;;
23376;SDS011;14353;46.070;13.222;2024-01-27T08:48:36;8.68;;;5.38;;
23376;SDS011;14353;46.070;13.222;2024-01-27T08:51:02;8.00;;;5.20;;
23376;SDS011;14353;46.070;13.222;2024-01-27T08:53:27;7.93;;;5.57;;
23376;SDS011;14353;46.070;13.222;2024-01-27T08:55:54;7.75;;;5.15;;
23376;SDS011;14353;46.070;13.222;2024-01-27T08:58:20;8.60;;;5.30;;
23376;SDS011;14353;46.070;13.222;2024-01-27T09:00:45;9.77;;;5.70;;
23376;SDS011;14353;46.070;13.222;2024-01-27T09:03:11;8.00;;;5.40;;
23376;SDS011;14353;46.070;13.222;2024-01-27T09:05:39;9.13;;;5.35;;
23376;SDS011;14353;46.070;13.222;2024-01-27T09:08:08;9.32;;;5.35;;
23376;SDS011;14353;46.070;13.222;2024-01-27T09:10:34;9.38;;;5.10;;
23376;SDS011;14353;46.070;13.222;2024-01-27T09:13:00;9.18;;;5.22;;
23376;SDS011;14353;46.070;13.222;2024-01-27T09:15:26;8.18;;;5.55;;
23376;SDS011;14353;46.070;13.222;2024-01-27T09:17:51;9.02;;;5.35;;
23376;SDS011;14353;46.070;13.222;2024-01-27T09:20:17;11.55;;;4.93;;
23376;SDS011;14353;46.070;13.222;2024-01-27T09:22:43;7.60;;;4.65;;
23376;SDS011;14353;46.070;13.222;2024-01-27T09:25:11;11.15;;;5.45;;
23376;SDS011;14353;46.070;13.222;2024-01-27T09:27:37;7.53;;;5.20;;
23376;SDS011;14353;46.070;13.222;2024-01-27T09:30:02;7.75;;;4.95;;
23376;SDS011;14353;46.070;13.222;2024-01-27T09:32:30;10.90;;;5.18;;
23376;SDS011;14353;46.070;13.222;2024-01-27T09:34:55;9.38;;;4.90;;
23376;SDS011;14353;46.070;13.222;2024-01-27T09:37:21;7.45;;;4.93;;
23376;SDS011;14353;46.070;13.222;2024-01-27T09:39:47;7.93;;;4.82;;
23376;SDS011;14353;46.070;13.222;2024-01-27T09:42:13;6.47;;;4.63;;
23376;SDS011;14353;46.070;13.222;2024-01-27T09:44:43;10.13;;;5.05;;
23376;SDS011;14353;46.070;13.222;2024-01-27T09:47:12;7.22;;;4.50;;
23376;SDS011;14353;46.070;13.222;2024-01-27T09:49:42;10.52;;;5.10;;
23376;SDS011;14353;46.070;13.222;2024-01-27T09:52:08;7.53;;;4.57;;
23376;SDS011;14353;46.070;13.222;2024-01-27T09:54:34;8.82;;;4.93;;
23376;SDS011;14353;46.070;13.222;2024-01-27T09:57:01;7.10;;;4.68;;
23376;SDS011;14353;46.070;13.222;2024-01-27T09:59:27;9.23;;;4.75;;
23376;SDS011;14353;46.070;13.222;2024-01-27T10:01:53;6.30;;;4.80;;
23376;SDS011;14353;46.070;13.222;2024-01-27T10:04:22;6.85;;;4.85;;
23376;SDS011;14353;46.070;13.222;2024-01-27T10:06:50;7.45;;;4.80;;
23376;SDS011;14353;46.070;13.222;2024-01-27T10:09:16;8.82;;;5.20;;
23376;SDS011;14353;46.070;13.222;2024-01-27T10:11:45;9.10;;;5.05;;
23376;SDS011;14353;46.070;13.222;2024-01-27T10:14:12;7.40;;;4.68;;
23376;SDS011;14353;46.070;13.222;2024-01-27T10:16:41;7.85;;;4.60;;
23376;SDS011;14353;46.070;13.222;2024-01-27T10:19:14;8.27;;;4.80;;
23376;SDS011;14353;46.070;13.222;2024-01-27T10:21:44;8.23;;;4.85;;
23376;SDS011;14353;46.070;13.222;2024-01-27T10:24:11;7.32;;;4.78;;
23376;SDS011;14353;46.070;13.222;2024-01-27T10:26:37;7.60;;;4.72;;
23376;SDS011;14353;46.070;13.222;2024-01-27T10:29:03;8.68;;;4.63;;
23376;SDS011;14353;46.070;13.222;2024-01-27T10:31:35;7.47;;;4.53;;
23376;SDS011;14353;46.070;13.222;2024-01-27T10:34:01;5.80;;;4.45;;
23376;SDS011;14353;46.070;13.222;2024-01-27T10:36:38;9.30;;;4.63;;
23376;SDS011;14353;46.070;13.222;2024-01-27T10:39:15;7.05;;;4.35;;
23376;SDS011;14353;46.070;13.222;2024-01-27T10:41:49;6.20;;;4.15;;
23376;SDS011;14353;46.070;13.222;2024-01-27T10:44:16;8.43;;;4.90;;
23376;SDS011;14353;46.070;13.222;2024-01-27T10:46:43;8.35;;;4.60;;
23376;SDS011;14353;46.070;13.222;2024-01-27T10:49:15;7.03;;;4.00;;
23376;SDS011;14353;46.070;13.222;2024-01-27T10:51:45;6.43;;;4.10;;
23376;SDS011;14353;46.070;13.222;2024-01-27T10:54:14;6.32;;;4.32;;
23376;SDS011;14353;46.070;13.222;2024-01-27T10:59:13;10.32;;;4.05;;
23376;SDS011;14353;46.070;13.222;2024-01-27T11:01:41;10.15;;;4.30;;
23376;SDS011;14353;46.070;13.222;2024-01-27T11:04:08;9.30;;;4.20;;
23376;SDS011;14353;46.070;13.222;2024-01-27T11:06:35;8.23;;;4.40;;
23376;SDS011;14353;46.070;13.222;2024-01-27T11:09:03;5.18;;;4.22;;
23376;SDS011;14353;46.070;13.222;2024-01-27T11:11:30;8.77;;;4.13;;
23376;SDS011;14353;46.070;13.222;2024-01-27T11:13:57;7.60;;;4.30;;
23376;SDS011;14353;46.070;13.222;2024-01-27T11:16:23;10.98;;;4.28;;
23376;SDS011;14353;46.070;13.222;2024-01-27T11:18:49;8.43;;;4.43;;
23376;SDS011;14353;46.070;13.222;2024-01-27T11:21:15;7.22;;;4.40;;
23376;SDS011;14353;46.070;13.222;2024-01-27T11:23:42;10.27;;;4.22;;
23376;SDS011;14353;46.070;13.222;2024-01-27T11:26:10;6.90;;;4.20;;
23376;SDS011;14353;46.070;13.222;2024-01-27T11:28:39;9.45;;;4.43;;
23376;SDS011;14353;46.070;13.222;2024-01-27T11:31:06;6.50;;;3.90;;
23376;SDS011;14353;46.070;13.222;2024-01-27T11:33:33;11.40;;;4.88;;
23376;SDS011;14353;46.070;13.222;2024-01-27T11:35:59;12.93;;;4.60;;
23376;SDS011;14353;46.070;13.222;2024-01-27T11:38:27;12.10;;;4.57;;
23376;SDS011;14353;46.070;13.222;2024-01-27T11:40:53;9.45;;;4.55;;
23376;SDS011;14353;46.070;13.222;2024-01-27T11:43:18;10.90;;;4.15;;
23376;SDS011;14353;46.070;13.222;2024-01-27T11:45:54;8.25;;;4.03;;
23376;SDS011;14353;46.070;13.222;2024-01-27T11:48:23;7.30;;;4.20;;
23376;SDS011;14353;46.070;13.222;2024-01-27T11:50:49;11.43;;;4.40;;
23376;SDS011;14353;46.070;13.222;2024-01-27T11:53:28;8.95;;;4.20;;
23376;SDS011;14353;46.070;13.222;2024-01-27T11:55:54;6.75;;;4.18;;
23376;SDS011;14353;46.070;13.222;2024-01-27T11:58:24;14.77;;;5.00;;
23376;SDS011;14353;46.070;13.222;2024-01-27T12:00:49;7.32;;;4.38;;
23376;SDS011;14353;46.070;13.222;2024-01-27T12:03:15;9.35;;;4.55;;
23376;SDS011;14353;46.070;13.222;2024-01-27T12:05:41;8.68;;;4.47;;
23376;SDS011;14353;46.070;13.222;2024-01-27T12:08:07;7.97;;;4.32;;
23376;SDS011;14353;46.070;13.222;2024-01-27T12:10:37;9.63;;;4.18;;
23376;SDS011;14353;46.070;13.222;2024-01-27T12:13:03;10.20;;;4.10;;
23376;SDS011;14353;46.070;13.222;2024-01-27T12:15:29;7.10;;;4.00;;
23376;SDS011;14353;46.070;13.222;2024-01-27T12:17:55;8.25;;;3.85;;
23376;SDS011;14353;46.070;13.222;2024-01-27T12:20:22;9.48;;;3.90;;
23376;SDS011;14353;46.070;13.222;2024-01-27T12:22:48;10.48;;;4.53;;
23376;SDS011;14353;46.070;13.222;2024-01-27T12:25:20;10.63;;;4.75;;
23376;SDS011;14353;46.070;13.222;2024-01-27T12:27:46;9.90;;;4.60;;
23376;SDS011;14353;46.070;13.222;2024-01-27T12:30:12;11.00;;;4.90;;
23376;SDS011;14353;46.070;13.222;2024-01-27T12:32:38;11.82;;;5.05;;
23376;SDS011;14353;46.070;13.222;2024-01-27T12:35:04;9.88;;;4.43;;
23376;SDS011;14353;46.070;13.222;2024-01-27T12:37:30;10.27;;;4.57;;
23376;SDS011;14353;46.070;13.222;2024-01-27T12:39:56;8.68;;;4.63;;
23376;SDS011;14353;46.070;13.222;2024-01-27T12:42:22;12.98;;;4.63;;
23376;SDS011;14353;46.070;13.222;2024-01-27T12:44:47;11.90;;;4.30;;
23376;SDS011;14353;46.070;13.222;2024-01-27T12:47:13;10.95;;;4.05;;
23376;SDS011;14353;46.070;13.222;2024-01-27T12:49:39;7.30;;;4.22;;
23376;SDS011;14353;46.070;13.222;2024-01-27T12:52:08;6.85;;;3.72;;
23376;SDS011;14353;46.070;13.222;2024-01-27T12:54:34;93.32;;;7.18;;
23376;SDS011;14353;46.070;13.222;2024-01-27T12:57:00;16.13;;;4.45;;
23376;SDS011;14353;46.070;13.222;2024-01-27T12:59:26;11.90;;;4.28;;
23376;SDS011;14353;46.070;13.222;2024-01-27T13:01:53;12.70;;;3.90;;
23376;SDS011;14353;46.070;13.222;2024-01-27T13:04:19;11.63;;;3.80;;
23376;SDS011;14353;46.070;13.222;2024-01-27T13:06:45;12.57;;;3.75;;
23376;SDS011;14353;46.070;13.222;2024-01-27T13:09:10;13.90;;;3.92;;
23376;SDS011;14353;46.070;13.222;2024-01-27T13:11:37;8.60;;;3.70;;
23376;SDS011;14353;46.070;13.222;2024-01-27T13:14:03;9.80;;;3.40;;
23376;SDS011;14353;46.070;13.222;2024-01-27T13:16:34;11.25;;;3.63;;
23376;SDS011;14353;46.070;13.222;2024-01-27T13:19:00;5.85;;;3.13;;
23376;SDS011;14353;46.070;13.222;2024-01-27T13:21:25;8.38;;;3.40;;
23376;SDS011;14353;46.070;13.222;2024-01-27T13:23:51;5.82;;;3.58;;
23376;SDS011;14353;46.070;13.222;2024-01-27T13:26:17;10.80;;;3.30;;
23376;SDS011;14353;46.070;13.222;2024-01-27T13:28:43;5.90;;;3.40;;
23376;SDS011;14353;46.070;13.222;2024-01-27T13:31:10;5.80;;;3.20;;
23376;SDS011;14353;46.070;13.222;2024-01-27T13:33:36;6.88;;;3.75;;
23376;SDS011;14353;46.070;13.222;2024-01-27T13:36:01;6.25;;;3.42;;
23376;SDS011;14353;46.070;13.222;2024-01-27T13:38:27;5.43;;;3.20;;
23376;SDS011;14353;46.070;13.222;2024-01-27T13:40:54;7.45;;;3.40;;
23376;SDS011;14353;46.070;13.222;2024-01-27T13:43:19;3.75;;;2.92;;
23376;SDS011;14353;46.070;13.222;2024-01-27T13:45:45;4.80;;;3.03;;
23376;SDS011;14353;46.070;13.222;2024-01-27T13:48:12;5.22;;;3.10;;
23376;SDS011;14353;46.070;13.222;2024-01-27T13:50:38;6.07;;;3.17;;
23376;SDS011;14353;46.070;13.222;2024-01-27T13:53:04;5.00;;;2.90;;
23376;SDS011;14353;46.070;13.222;2024-01-27T13:55:31;6.05;;;3.30;;
23376;SDS011;14353;46.070;13.222;2024-01-27T13:57:57;7.90;;;2.92;;
23376;SDS011;14353;46.070;13.222;2024-01-27T14:00:22;6.85;;;2.97;;
23376;SDS011;14353;46.070;13.222;2024-01-27T14:02:48;4.07;;;3.03;;
23376;SDS011;14353;46.070;13.222;2024-01-27T14:05:14;5.20;;;2.95;;
23376;SDS011;14353;46.070;13.222;2024-01-27T14:07:39;5.50;;;3.17;;
23376;SDS011;14353;46.070;13.222;2024-01-27T14:10:05;6.45;;;3.30;;
23376;SDS011;14353;46.070;13.222;2024-01-27T14:12:31;7.40;;;2.88;;
23376;SDS011;14353;46.070;13.222;2024-01-27T14:15:03;4.53;;;2.90;;
23376;SDS011;14353;46.070;13.222;2024-01-27T14:17:32;3.60;;;2.80;;
23376;SDS011;14353;46.070;13.222;2024-01-27T14:19:59;6.80;;;3.42;;
23376;SDS011;14353;46.070;13.222;2024-01-27T14:22:25;5.53;;;3.00;;
23376;SDS011;14353;46.070;13.222;2024-01-27T14:24:51;5.35;;;3.22;;